createdAt,value
2022-08-09T00:00:00.534Z,3.17
2022-08-09T00:02:29.025Z,2.97
2022-08-09T00:05:03.068Z,3.50
2022-08-09T00:07:44.457Z,3.40
2022-08-09T00:10:18.106Z,3.42
2022-08-09T00:12:52.542Z,3.55
2022-08-09T00:15:35.588Z,3.20
2022-08-09T00:18:11.166Z,3.35
2022-08-09T00:20:42.496Z,3.03
2022-08-09T00:23:57.603Z,3.25
2022-08-09T00:26:11.020Z,3.45
2022-08-09T00:28:39.632Z,3.00
2022-08-09T00:31:30.599Z,3.42
2022-08-09T00:33:55.162Z,3.08
2022-08-09T00:36:29.784Z,3.10
2022-08-09T00:38:58.654Z,3.22
2022-08-09T00:44:11.266Z,3.30
2022-08-09T00:44:19.712Z,3.08
2022-08-09T00:46:57.771Z,3.50
2022-08-09T00:49:33.036Z,3.25
2022-08-09T00:52:02.135Z,3.35
2022-08-09T00:54:35.888Z,3.30
2022-08-09T00:57:10.311Z,3.35
2022-08-09T00:59:46.877Z,3.50
2022-08-09T01:02:24.483Z,3.45
2022-08-09T01:04:58.514Z,3.22
2022-08-09T01:07:59.925Z,3.65
2022-08-09T01:11:01.845Z,3.38
2022-08-09T01:13:59.157Z,3.97
2022-08-09T01:16:32.332Z,3.63
2022-08-09T01:19:39.662Z,3.55
2022-08-09T01:22:18.380Z,3.78
2022-08-09T01:25:14.582Z,3.10
2022-08-09T01:27:52.485Z,3.67
2022-08-09T01:30:28.771Z,3.75
2022-08-09T01:33:03.654Z,3.70
2022-08-09T01:35:39.255Z,3.67
2022-08-09T01:38:16.281Z,3.40
2022-08-09T01:43:30.866Z,3.65
2022-08-09T01:45:59.315Z,3.65
2022-08-09T01:48:29.777Z,3.50
2022-08-09T01:50:59.297Z,3.50
2022-08-09T01:53:29.282Z,3.90
2022-08-09T01:56:10.748Z,3.70
2022-08-09T01:58:38.955Z,3.72
2022-08-09T02:01:07.366Z,3.45
2022-08-09T02:03:36.713Z,3.72
2022-08-09T02:06:07.113Z,3.65
2022-08-09T02:08:57.002Z,3.83
2022-08-09T02:11:40.178Z,3.28
2022-08-09T02:14:15.911Z,3.40
2022-08-09T02:17:14.773Z,3.53
2022-08-09T02:19:43.302Z,3.58
2022-08-09T02:22:31.620Z,3.60
2022-08-09T02:25:04.347Z,3.28
2022-08-09T02:27:57.699Z,3.58
2022-08-09T02:30:25.317Z,3.60
2022-08-09T02:32:55.096Z,3.55
2022-08-09T02:36:01.605Z,3.60
2022-08-09T02:38:22.046Z,3.97
2022-08-09T02:40:59.562Z,3.40
2022-08-09T02:43:28.709Z,3.17
2022-08-09T02:45:58.197Z,3.35
2022-08-09T02:48:30.721Z,3.65
2022-08-09T02:51:01.790Z,3.90
2022-08-09T02:53:53.024Z,3.50
2022-08-09T02:56:28.469Z,3.95
2022-08-09T02:58:57.173Z,4.22
2022-08-09T03:01:42.503Z,3.58
2022-08-09T03:04:19.135Z,4.00
2022-08-09T03:06:52.726Z,4.03
2022-08-09T03:09:22.823Z,3.75
2022-08-09T03:12:06.396Z,3.80
2022-08-09T03:14:37.810Z,3.47
2022-08-09T03:17:05.443Z,3.67
2022-08-09T03:19:57.933Z,3.45
2022-08-09T03:22:25.380Z,4.13
2022-08-09T03:25:21.618Z,4.50
2022-08-09T03:27:51.869Z,4.20
2022-08-09T03:30:29.228Z,3.78
2022-08-09T03:33:05.697Z,3.70
2022-08-09T03:36:13.804Z,4.15
2022-08-09T03:38:28.975Z,4.10
2022-08-09T03:40:56.200Z,4.00
2022-08-09T03:43:22.984Z,4.00
2022-08-09T03:46:13.654Z,4.05
2022-08-09T03:48:37.483Z,3.95
2022-08-09T03:51:57.325Z,3.55
2022-08-09T03:54:11.460Z,3.85
2022-08-09T03:56:44.786Z,4.18
2022-08-09T04:07:56.931Z,3.90
2022-08-09T04:10:30.494Z,4.00
2022-08-09T04:13:45.017Z,5.93
2022-08-09T04:16:20.515Z,4.10
2022-08-09T04:18:51.087Z,4.78
2022-08-09T04:21:23.763Z,4.53
2022-08-09T04:23:57.599Z,4.82
2022-08-09T04:26:35.324Z,4.03
2022-08-09T04:34:47.829Z,4.82
2022-08-09T04:37:45.870Z,5.05
2022-08-09T04:43:08.695Z,4.25
2022-08-09T04:45:53.954Z,5.00
2022-08-09T04:48:33.542Z,4.18
2022-08-09T04:51:05.011Z,4.97
2022-08-09T04:53:40.328Z,4.57
2022-08-09T04:56:20.035Z,4.65
2022-08-09T05:01:42.400Z,5.07
2022-08-09T05:09:42.121Z,4.35
2022-08-09T05:18:37.605Z,4.95
2022-08-09T05:20:59.455Z,5.15
2022-08-09T05:24:00.692Z,5.03
2022-08-09T05:26:46.138Z,5.07
2022-08-09T05:29:31.417Z,5.25
2022-08-09T05:32:09.895Z,4.57
2022-08-09T05:37:46.453Z,4.93
2022-08-09T05:40:30.414Z,5.38
2022-08-09T05:42:57.980Z,4.97
2022-08-09T05:45:25.888Z,5.32
2022-08-09T05:48:19.501Z,4.60
2022-08-09T05:51:16.708Z,4.90
2022-08-09T05:53:51.588Z,4.90
2022-08-09T05:56:28.207Z,5.32
2022-08-09T05:59:00.088Z,4.70
2022-08-09T06:02:10.054Z,4.43
2022-08-09T06:11:16.346Z,5.38
2022-08-09T06:19:48.668Z,5.07
2022-08-09T06:25:00.204Z,4.82
2022-08-09T06:27:51.314Z,5.32
2022-08-09T06:30:26.952Z,4.28
2022-08-09T06:33:41.012Z,4.55
2022-08-09T06:36:18.835Z,5.20
2022-08-09T06:39:18.168Z,4.35
2022-08-09T06:42:14.750Z,5.03
2022-08-09T06:50:42.125Z,4.32
2022-08-09T06:56:09.926Z,4.20
2022-08-09T07:00:47.384Z,4.10
2022-08-09T07:01:53.756Z,3.85
2022-08-09T07:10:14.259Z,4.07
2022-08-09T07:13:00.617Z,4.30
2022-08-09T07:18:49.965Z,4.47
2022-08-09T07:24:22.203Z,3.63
2022-08-09T07:33:52.873Z,3.95
2022-08-09T07:39:40.811Z,4.03
2022-08-09T07:42:18.603Z,3.97
2022-08-09T07:44:51.059Z,3.53
2022-08-09T07:47:24.990Z,3.72
2022-08-09T07:50:07.696Z,3.90
2022-08-09T07:53:02.287Z,3.65
2022-08-09T07:55:41.324Z,4.18
2022-08-09T07:58:34.812Z,3.50
2022-08-09T08:04:10.527Z,3.63
2022-08-09T08:06:45.489Z,3.88
2022-08-09T08:12:28.008Z,3.60
2022-08-09T08:15:11.964Z,3.40
2022-08-09T08:17:52.876Z,3.50
2022-08-09T08:26:55.125Z,3.50
2022-08-09T08:29:59.598Z,3.72
2022-08-09T08:32:34.960Z,3.03
2022-08-09T08:35:58.398Z,3.47
2022-08-09T08:38:33.945Z,3.42
2022-08-09T08:41:06.967Z,3.10
2022-08-09T08:49:47.129Z,3.55
2022-08-09T08:52:58.989Z,3.28
2022-08-09T08:58:30.764Z,3.47
2022-08-09T09:04:26.923Z,3.08
2022-08-09T09:10:16.738Z,2.95
2022-08-09T09:12:52.179Z,2.80
2022-08-09T09:15:28.986Z,3.10
2022-08-09T09:18:08.691Z,2.33
2022-08-09T09:20:50.346Z,3.58
2022-08-09T09:26:30.179Z,3.10
2022-08-09T09:29:03.741Z,3.30
2022-08-09T09:32:14.826Z,3.03
2022-08-09T09:34:33.707Z,2.97
2022-08-09T09:37:27.045Z,3.08
2022-08-09T09:40:05.777Z,2.90
2022-08-09T09:42:43.102Z,2.90
2022-08-09T09:49:16.702Z,3.13
2022-08-09T09:52:16.505Z,2.97
2022-08-09T09:55:24.267Z,2.80
2022-08-09T09:58:18.077Z,3.28
2022-08-09T10:04:30.930Z,2.50
2022-08-09T10:07:09.740Z,2.50
2022-08-09T10:09:54.568Z,2.50
2022-08-09T10:12:43.956Z,2.60
2022-08-09T10:15:50.973Z,2.65
2022-08-09T10:18:12.832Z,2.35
2022-08-09T10:20:45.280Z,3.05
2022-08-09T10:23:20.205Z,2.45
2022-08-09T10:26:06.378Z,2.70
2022-08-09T10:28:38.213Z,2.70
2022-08-09T10:34:08.397Z,2.67
2022-08-09T10:36:42.300Z,2.38
2022-08-09T10:39:16.188Z,2.50
2022-08-09T10:41:47.721Z,3.45
2022-08-09T10:44:22.031Z,2.55
2022-08-09T10:48:12.555Z,2.80
2022-08-09T10:50:30.798Z,2.30
2022-08-09T10:53:19.105Z,2.85
2022-08-09T10:55:58.012Z,2.85
2022-08-09T10:58:35.064Z,2.30
2022-08-09T11:03:02.763Z,2.50
2022-08-09T11:04:27.719Z,2.60
2022-08-09T11:07:01.569Z,2.38
2022-08-09T11:09:47.534Z,2.35
2022-08-09T11:12:29.892Z,2.65
2022-08-09T11:15:23.984Z,2.38
2022-08-09T11:20:42.347Z,2.17
2022-08-09T11:23:10.787Z,2.40
2022-08-09T11:25:47.516Z,2.53
2022-08-09T11:28:38.624Z,2.38
2022-08-09T11:31:52.953Z,2.38
2022-08-09T11:34:34.951Z,2.28
2022-08-09T11:37:03.648Z,2.40
2022-08-09T11:40:08.364Z,2.10
2022-08-09T11:42:52.842Z,2.22
2022-08-09T11:45:37.957Z,2.00
2022-08-09T11:48:19.336Z,2.25
2022-08-09T11:52:54.067Z,2.20
2022-08-09T11:54:00.379Z,2.00
2022-08-09T11:56:41.690Z,2.15
2022-08-09T11:59:11.954Z,2.10
2022-08-09T12:02:17.270Z,1.73
2022-08-09T12:04:36.991Z,2.13
2022-08-09T12:07:07.761Z,2.63
2022-08-09T12:09:36.266Z,2.00
2022-08-09T12:12:13.081Z,2.03
2022-08-09T12:15:07.643Z,1.98
2022-08-09T12:17:43.539Z,2.22
2022-08-09T12:20:24.017Z,1.95
2022-08-09T12:23:00.007Z,2.00
2022-08-09T12:25:37.711Z,1.90
2022-08-09T12:29:11.660Z,2.00
2022-08-09T12:31:11.276Z,1.80
2022-08-09T12:33:58.938Z,2.42
2022-08-09T12:36:31.544Z,1.90
2022-08-09T12:39:01.063Z,2.05
2022-08-09T12:41:39.238Z,2.10
2022-08-09T12:44:12.822Z,1.70
2022-08-09T12:46:50.058Z,1.65
2022-08-09T12:49:18.302Z,2.65
2022-08-09T12:52:02.767Z,2.13
2022-08-09T12:56:12.452Z,2.47
2022-08-09T12:57:47.381Z,2.30
2022-08-09T13:00:25.062Z,2.10
2022-08-09T13:03:02.842Z,2.10
2022-08-09T13:06:13.022Z,1.98
2022-08-09T13:08:39.741Z,2.00
2022-08-09T13:11:23.017Z,2.03
2022-08-09T13:14:40.638Z,2.20
2022-08-09T13:16:54.485Z,2.10
2022-08-09T13:20:09.492Z,1.85
2022-08-09T13:22:37.826Z,2.10
2022-08-09T13:25:14.059Z,2.08
2022-08-09T13:27:54.592Z,2.22
2022-08-09T13:30:58.643Z,2.00
2022-08-09T13:33:52.374Z,1.98
2022-08-09T13:36:38.549Z,1.85
2022-08-09T13:41:19.401Z,2.20
2022-08-09T13:42:01.086Z,2.17
2022-08-09T13:44:28.928Z,1.90
2022-08-09T13:47:25.473Z,2.13
2022-08-09T13:49:57.463Z,2.08
2022-08-09T13:52:25.251Z,2.38
2022-08-09T13:54:59.902Z,2.00
2022-08-09T13:57:36.441Z,2.15
2022-08-09T14:00:09.840Z,2.80
2022-08-09T14:02:42.948Z,2.35
2022-08-09T14:05:59.585Z,2.40
2022-08-09T14:08:10.521Z,2.15
2022-08-09T14:10:49.000Z,2.35
2022-08-09T14:13:28.053Z,2.20
2022-08-09T14:16:11.076Z,2.45
2022-08-09T14:18:43.280Z,2.70
2022-08-09T14:21:17.772Z,2.40
2022-08-09T14:23:54.090Z,2.85
2022-08-09T14:26:25.292Z,2.92
2022-08-09T14:28:57.686Z,2.25
2022-08-09T14:31:35.800Z,2.05
2022-08-09T14:34:11.611Z,2.08
2022-08-09T14:36:39.804Z,2.95
2022-08-09T14:39:09.868Z,2.50
2022-08-09T14:41:41.553Z,2.25
2022-08-09T14:44:11.024Z,2.30
2022-08-09T14:47:00.906Z,2.22
2022-08-09T14:49:26.342Z,2.30
2022-08-09T14:51:58.924Z,2.90
2022-08-09T14:54:27.751Z,2.55
2022-08-09T14:56:58.928Z,2.80
2022-08-09T14:59:28.604Z,3.05
2022-08-09T15:01:55.971Z,2.40
2022-08-09T15:04:23.602Z,2.65
2022-08-09T15:06:51.698Z,2.80
2022-08-09T15:10:03.082Z,2.65
2022-08-09T15:12:08.050Z,2.42
2022-08-09T15:14:38.768Z,2.63
2022-08-09T15:17:09.830Z,2.30
2022-08-09T15:19:59.332Z,2.67
2022-08-09T15:22:29.883Z,2.88
2022-08-09T15:24:56.636Z,2.50
2022-08-09T15:27:23.405Z,2.63
2022-08-09T15:30:56.676Z,2.50
2022-08-09T15:32:41.237Z,3.03
2022-08-09T15:35:40.225Z,2.60
2022-08-09T15:38:10.904Z,2.60
2022-08-09T15:40:43.422Z,2.70
2022-08-09T15:43:13.617Z,2.75
2022-08-09T15:46:07.420Z,3.00
2022-08-09T15:48:31.710Z,3.03
2022-08-09T15:51:00.502Z,3.08
2022-08-09T15:54:02.642Z,2.83
2022-08-09T15:56:28.703Z,2.60
2022-08-09T15:59:04.920Z,2.92
2022-08-09T16:01:39.759Z,2.78
2022-08-09T16:04:12.074Z,2.58
2022-08-09T16:06:50.341Z,2.72
2022-08-09T16:10:02.484Z,2.60
2022-08-09T16:12:50.019Z,3.30
2022-08-09T16:16:11.732Z,2.60
2022-08-09T16:18:15.654Z,2.60
2022-08-09T16:20:54.936Z,3.08
2022-08-09T16:23:37.025Z,2.58
2022-08-09T16:26:19.916Z,2.78
2022-08-09T16:29:37.783Z,2.72
2022-08-09T16:32:34.069Z,3.00
2022-08-09T16:35:05.589Z,2.97
2022-08-09T16:37:56.819Z,2.97
2022-08-09T16:40:41.796Z,2.72
2022-08-09T16:43:10.134Z,3.10
2022-08-09T16:45:53.675Z,3.10
2022-08-09T16:48:55.723Z,2.75
2022-08-09T16:51:34.857Z,2.90
2022-08-09T16:54:34.441Z,3.33
2022-08-09T16:57:26.375Z,2.92
2022-08-09T17:00:25.522Z,2.83
2022-08-09T17:03:05.072Z,3.13
2022-08-09T17:06:28.806Z,3.00
2022-08-09T17:11:42.481Z,3.65
2022-08-09T17:14:26.916Z,3.28
2022-08-09T17:19:46.494Z,3.35
2022-08-09T17:22:35.860Z,3.38
2022-08-09T17:25:39.039Z,2.85
2022-08-09T17:35:00.984Z,3.58
2022-08-09T17:37:22.644Z,3.03
2022-08-09T17:39:55.676Z,2.95
2022-08-09T17:42:41.485Z,3.10
2022-08-09T17:45:15.789Z,2.88
2022-08-09T17:47:54.758Z,3.00
2022-08-09T17:50:36.444Z,2.90
2022-08-09T17:53:19.765Z,2.78
2022-08-09T17:55:51.255Z,3.47
2022-08-09T17:58:24.218Z,3.28
2022-08-09T18:00:58.480Z,3.15
2022-08-09T18:03:26.447Z,2.92
2022-08-09T18:05:57.370Z,3.17
2022-08-09T18:08:28.119Z,3.33
2022-08-09T18:11:02.041Z,3.00
2022-08-09T18:13:43.478Z,3.20
2022-08-09T18:16:30.166Z,3.13
2022-08-09T18:19:03.459Z,3.15
2022-08-09T18:21:40.902Z,3.13
2022-08-09T18:24:14.289Z,2.80
2022-08-09T18:26:46.398Z,3.10
2022-08-09T18:30:41.355Z,2.80
2022-08-09T18:32:03.137Z,3.00
2022-08-09T18:34:32.712Z,3.25
2022-08-09T18:36:59.492Z,3.03
2022-08-09T18:39:32.801Z,3.10
2022-08-09T18:44:28.163Z,2.80
2022-08-09T18:47:08.328Z,3.10
2022-08-09T18:49:41.537Z,2.85
2022-08-09T18:52:15.981Z,3.00
2022-08-09T18:54:52.272Z,2.90
2022-08-09T18:57:21.878Z,2.80
2022-08-09T18:59:57.411Z,2.80
2022-08-09T19:02:31.954Z,3.25
2022-08-09T19:05:20.617Z,2.70
2022-08-09T19:08:04.190Z,3.03
2022-08-09T19:10:39.026Z,3.35
2022-08-09T19:13:20.779Z,2.78
2022-08-09T19:15:56.936Z,2.40
2022-08-09T19:18:33.003Z,3.10
2022-08-09T19:21:02.422Z,2.90
2022-08-09T19:24:33.356Z,2.90
2022-08-09T19:26:16.843Z,2.88
2022-08-09T19:28:48.582Z,2.78
2022-08-09T19:31:16.730Z,2.55
2022-08-09T19:33:44.140Z,3.03
2022-08-09T19:36:11.778Z,2.80
2022-08-09T19:38:40.395Z,3.13
2022-08-09T19:41:07.289Z,2.90
2022-08-09T19:44:00.593Z,2.65
2022-08-09T19:46:35.173Z,2.90
2022-08-09T19:50:09.218Z,3.00
2022-08-09T19:51:55.186Z,2.85
2022-08-09T19:54:27.847Z,2.20
2022-08-09T19:56:58.612Z,2.80
2022-08-09T19:59:57.702Z,2.53
2022-08-09T20:04:07.181Z,2.72
2022-08-09T20:05:09.932Z,2.80
2022-08-09T20:07:59.738Z,2.90
2022-08-09T20:10:27.991Z,2.60
2022-08-09T20:13:02.349Z,2.85
2022-08-09T20:16:37.590Z,2.80
2022-08-09T20:18:19.679Z,2.85
2022-08-09T20:20:47.101Z,2.70
2022-08-09T20:23:17.367Z,2.90
2022-08-09T20:25:52.414Z,3.20
2022-08-09T20:28:31.973Z,2.70
2022-08-09T20:31:05.639Z,3.00
2022-08-09T20:33:39.030Z,3.05
2022-08-09T20:36:11.442Z,3.00
2022-08-09T20:39:07.196Z,3.00
2022-08-09T20:41:32.316Z,3.28
2022-08-09T20:44:03.350Z,3.00
2022-08-09T20:46:33.798Z,2.80
2022-08-09T20:49:11.332Z,2.92
2022-08-09T20:51:41.066Z,3.20
2022-08-09T20:54:12.761Z,3.15
2022-08-09T20:56:49.888Z,3.22
2022-08-09T20:59:24.973Z,3.20
2022-08-09T21:02:10.527Z,3.60
2022-08-09T21:05:51.578Z,3.05
2022-08-09T21:07:30.037Z,2.97
2022-08-09T21:09:58.489Z,3.47
2022-08-09T21:15:23.911Z,2.80
2022-08-09T21:18:11.601Z,3.15
2022-08-09T21:20:54.161Z,3.13
2022-08-09T21:23:21.185Z,3.42
2022-08-09T21:25:59.373Z,3.33
2022-08-09T21:31:18.221Z,3.13
2022-08-09T21:36:19.176Z,3.33
2022-08-09T21:38:56.573Z,3.25
2022-08-09T21:41:59.735Z,3.08
2022-08-09T21:44:10.756Z,2.95
2022-08-09T21:46:37.552Z,2.92
2022-08-09T21:49:04.701Z,3.00
2022-08-09T21:51:36.254Z,3.47
2022-08-09T21:54:10.270Z,3.15
2022-08-09T21:56:44.710Z,2.95
2022-08-09T21:59:23.168Z,2.97
2022-08-09T22:02:00.411Z,3.15
2022-08-09T22:04:57.034Z,3.05
2022-08-09T22:07:35.458Z,3.20
2022-08-09T22:10:06.049Z,3.55
2022-08-09T22:12:33.391Z,3.30
2022-08-09T22:15:01.119Z,3.10
2022-08-09T22:17:28.112Z,3.00
2022-08-09T22:20:00.883Z,2.92
2022-08-09T22:22:30.501Z,3.10
2022-08-09T22:26:05.757Z,3.30
2022-08-09T22:27:47.670Z,3.28
2022-08-09T22:30:16.143Z,3.20
2022-08-09T22:32:58.166Z,3.20
2022-08-09T22:36:02.592Z,3.50
2022-08-09T22:38:11.742Z,3.42
2022-08-09T22:40:49.126Z,3.40
2022-08-09T22:44:01.222Z,3.17
2022-08-09T22:48:12.676Z,3.40
2022-08-09T22:49:01.948Z,3.15
2022-08-09T22:51:38.293Z,3.20
2022-08-09T22:54:08.267Z,3.28
2022-08-09T22:56:41.478Z,3.50
2022-08-09T22:59:55.884Z,3.30
2022-08-09T23:01:56.871Z,3.78
2022-08-09T23:04:25.520Z,3.80
2022-08-09T23:07:13.980Z,3.50
2022-08-09T23:09:42.972Z,3.50
2022-08-09T23:12:09.832Z,3.50
2022-08-09T23:14:41.834Z,3.28
2022-08-09T23:17:10.602Z,3.67
2022-08-09T23:20:07.460Z,3.85
2022-08-09T23:22:24.546Z,3.70
2022-08-09T23:24:51.610Z,3.92
2022-08-09T23:27:18.337Z,3.65
2022-08-09T23:29:45.154Z,3.60
2022-08-09T23:32:12.265Z,3.50
2022-08-09T23:34:39.214Z,3.40
2022-08-09T23:37:06.567Z,4.10
2022-08-09T23:39:33.491Z,3.53
2022-08-09T23:42:00.301Z,4.00
2022-08-09T23:44:27.230Z,3.65
2022-08-09T23:46:57.403Z,3.85
2022-08-09T23:49:25.759Z,4.10
2022-08-09T23:51:54.251Z,4.20
2022-08-09T23:54:25.808Z,3.80
2022-08-09T23:56:56.287Z,4.00
2022-08-09T23:59:25.526Z,3.90
